sensor_id;sensor_type;location;lat;lon;timestamp;pressure;altitude;pressure_sealevel;temperature;humidity
29417;BME280;28421;51.030;4.006;2023-06-19T00:02:01;100883.59;;;19.65;78.32
29417;BME280;28421;51.030;4.006;2023-06-19T00:04:26;100875.72;;;19.75;78.20
29417;BME280;28421;51.030;4.006;2023-06-19T00:06:52;100874.19;;;19.79;77.98
29417;BME280;28421;51.030;4.006;2023-06-19T00:09:18;100890.94;;;19.83;78.05
29417;BME280;28421;51.030;4.006;2023-06-19T00:11:44;100895.72;;;19.69;78.43
29417;BME280;28421;51.030;4.006;2023-06-19T00:14:09;100894.69;;;19.70;78.79
29417;BME280;28421;51.030;4.006;2023-06-19T00:16:35;100904.19;;;19.79;78.61
29417;BME280;28421;51.030;4.006;2023-06-19T00:19:00;100908.13;;;19.83;78.30
29417;BME280;28421;51.030;4.006;2023-06-19T00:21:29;100903.75;;;19.82;78.27
29417;BME280;28421;51.030;4.006;2023-06-19T00:23:55;100910.47;;;19.80;78.36
29417;BME280;28421;51.030;4.006;2023-06-19T00:26:20;100900.41;;;19.80;78.14
29417;BME280;28421;51.030;4.006;2023-06-19T00:28:49;100915.88;;;19.68;79.69
29417;BME280;28421;51.030;4.006;2023-06-19T00:31:15;100919.75;;;19.79;79.02
29417;BME280;28421;51.030;4.006;2023-06-19T00:33:43;100916.84;;;19.74;79.63
29417;BME280;28421;51.030;4.006;2023-06-19T00:36:12;100917.47;;;19.57;80.04
29417;BME280;28421;51.030;4.006;2023-06-19T00:38:38;100896.56;;;19.51;80.32
29417;BME280;28421;51.030;4.006;2023-06-19T00:41:04;100923.38;;;19.73;79.61
29417;BME280;28421;51.030;4.006;2023-06-19T00:43:30;100920.94;;;19.83;79.55
29417;BME280;28421;51.030;4.006;2023-06-19T00:45:57;100920.44;;;19.86;79.63
29417;BME280;28421;51.030;4.006;2023-06-19T00:48:23;100907.06;;;19.84;79.53
29417;BME280;28421;51.030;4.006;2023-06-19T00:50:50;100918.72;;;19.92;79.17
29417;BME280;28421;51.030;4.006;2023-06-19T00:53:17;100914.59;;;20.01;78.90
29417;BME280;28421;51.030;4.006;2023-06-19T00:55:45;100912.59;;;20.08;78.79
29417;BME280;28421;51.030;4.006;2023-06-19T00:58:11;100918.63;;;20.10;78.54
29417;BME280;28421;51.030;4.006;2023-06-19T01:00:37;100909.78;;;19.84;79.83
29417;BME280;28421;51.030;4.006;2023-06-19T01:03:03;100909.72;;;20.03;78.91
29417;BME280;28421;51.030;4.006;2023-06-19T01:05:29;100911.84;;;20.01;79.04
29417;BME280;28421;51.030;4.006;2023-06-19T01:08:17;100912.69;;;20.01;79.10
29417;BME280;28421;51.030;4.006;2023-06-19T01:10:55;100914.84;;;20.11;79.02
29417;BME280;28421;51.030;4.006;2023-06-19T01:16:10;100921.03;;;20.18;78.56
29417;BME280;28421;51.030;4.006;2023-06-19T01:18:36;100911.03;;;20.00;79.15
29417;BME280;28421;51.030;4.006;2023-06-19T01:21:15;100922.56;;;20.14;79.16
29417;BME280;28421;51.030;4.006;2023-06-19T01:23:42;100928.53;;;20.23;78.68
29417;BME280;28421;51.030;4.006;2023-06-19T01:26:08;100925.84;;;19.93;80.03
29417;BME280;28421;51.030;4.006;2023-06-19T01:28:40;100928.97;;;20.08;79.77
29417;BME280;28421;51.030;4.006;2023-06-19T01:31:16;100928.56;;;19.93;80.19
29417;BME280;28421;51.030;4.006;2023-06-19T01:33:44;100936.28;;;19.96;80.56
29417;BME280;28421;51.030;4.006;2023-06-19T01:36:10;100939.97;;;20.01;80.09
29417;BME280;28421;51.030;4.006;2023-06-19T01:38:37;100941.06;;;20.00;80.53
29417;BME280;28421;51.030;4.006;2023-06-19T01:41:04;100939.22;;;19.94;81.04
29417;BME280;28421;51.030;4.006;2023-06-19T01:43:31;100951.03;;;20.06;80.23
29417;BME280;28421;51.030;4.006;2023-06-19T01:45:58;100956.59;;;20.00;81.05
29417;BME280;28421;51.030;4.006;2023-06-19T01:48:24;100942.66;;;19.90;80.82
29417;BME280;28421;51.030;4.006;2023-06-19T01:50:50;100954.50;;;19.83;81.84
29417;BME280;28421;51.030;4.006;2023-06-19T01:53:16;100961.31;;;19.93;81.00
29417;BME280;28421;51.030;4.006;2023-06-19T01:55:41;100970.25;;;20.00;80.81
29417;BME280;28421;51.030;4.006;2023-06-19T01:58:07;100974.88;;;19.99;80.82
29417;BME280;28421;51.030;4.006;2023-06-19T02:00:32;100980.34;;;19.99;81.02
29417;BME280;28421;51.030;4.006;2023-06-19T02:03:01;100977.34;;;20.01;80.60
29417;BME280;28421;51.030;4.006;2023-06-19T02:05:27;100983.56;;;20.08;80.57
29417;BME280;28421;51.030;4.006;2023-06-19T02:07:52;100984.34;;;19.97;81.21
29417;BME280;28421;51.030;4.006;2023-06-19T02:10:17;100987.00;;;20.03;81.16
29417;BME280;28421;51.030;4.006;2023-06-19T02:12:43;100980.84;;;20.08;80.23
29417;BME280;28421;51.030;4.006;2023-06-19T02:15:09;100991.25;;;19.99;79.74
29417;BME280;28421;51.030;4.006;2023-06-19T02:17:34;100996.22;;;20.02;79.42
29417;BME280;28421;51.030;4.006;2023-06-19T02:20:02;101002.06;;;20.06;78.70
29417;BME280;28421;51.030;4.006;2023-06-19T02:22:29;100989.69;;;19.73;79.71
29417;BME280;28421;51.030;4.006;2023-06-19T02:24:54;101001.28;;;19.87;78.96
29417;BME280;28421;51.030;4.006;2023-06-19T02:27:19;101015.63;;;19.82;79.28
29417;BME280;28421;51.030;4.006;2023-06-19T02:29:45;100999.00;;;19.84;78.89
29417;BME280;28421;51.030;4.006;2023-06-19T02:32:11;101015.97;;;19.86;78.41
29417;BME280;28421;51.030;4.006;2023-06-19T02:34:37;101004.94;;;19.63;79.19
29417;BME280;28421;51.030;4.006;2023-06-19T02:37:04;101012.50;;;19.79;78.24
29417;BME280;28421;51.030;4.006;2023-06-19T02:39:30;101016.28;;;19.78;78.08
29417;BME280;28421;51.030;4.006;2023-06-19T02:41:55;101017.78;;;19.74;77.50
29417;BME280;28421;51.030;4.006;2023-06-19T02:44:21;101023.41;;;19.79;77.29
29417;BME280;28421;51.030;4.006;2023-06-19T02:46:46;101030.81;;;19.53;78.01
29417;BME280;28421;51.030;4.006;2023-06-19T02:49:12;101035.53;;;19.65;77.68
29417;BME280;28421;51.030;4.006;2023-06-19T02:51:37;101034.94;;;19.63;77.42
29417;BME280;28421;51.030;4.006;2023-06-19T02:54:03;101033.88;;;19.64;77.58
29417;BME280;28421;51.030;4.006;2023-06-19T02:56:29;101038.50;;;19.63;78.58
29417;BME280;28421;51.030;4.006;2023-06-19T02:58:54;101043.72;;;19.65;78.59
29417;BME280;28421;51.030;4.006;2023-06-19T03:01:20;101039.00;;;19.53;80.12
29417;BME280;28421;51.030;4.006;2023-06-19T03:03:45;101042.41;;;19.05;81.75
29417;BME280;28421;51.030;4.006;2023-06-19T03:06:11;101053.56;;;19.22;81.02
29417;BME280;28421;51.030;4.006;2023-06-19T03:08:39;101059.56;;;19.31;80.65
29417;BME280;28421;51.030;4.006;2023-06-19T03:11:04;101061.34;;;19.19;80.25
29417;BME280;28421;51.030;4.006;2023-06-19T03:13:52;101068.09;;;19.16;79.14
29417;BME280;28421;51.030;4.006;2023-06-19T03:16:19;101079.22;;;18.90;79.98
29417;BME280;28421;51.030;4.006;2023-06-19T03:18:46;101079.09;;;19.03;79.00
29417;BME280;28421;51.030;4.006;2023-06-19T03:21:14;101081.81;;;18.78;78.85
29417;BME280;28421;51.030;4.006;2023-06-19T03:23:41;101077.97;;;18.85;78.74
29417;BME280;28421;51.030;4.006;2023-06-19T03:26:08;101085.44;;;18.97;77.54
29417;BME280;28421;51.030;4.006;2023-06-19T03:28:35;101089.78;;;19.04;76.76
29417;BME280;28421;51.030;4.006;2023-06-19T03:31:01;101080.78;;;19.04;76.20
29417;BME280;28421;51.030;4.006;2023-06-19T03:33:27;101081.78;;;19.09;75.68
29417;BME280;28421;51.030;4.006;2023-06-19T03:35:53;101091.19;;;19.13;75.19
29417;BME280;28421;51.030;4.006;2023-06-19T03:38:33;101081.50;;;18.93;75.80
29417;BME280;28421;51.030;4.006;2023-06-19T03:40:58;101096.22;;;18.85;76.15
29417;BME280;28421;51.030;4.006;2023-06-19T03:43:24;101089.22;;;18.71;76.64
29417;BME280;28421;51.030;4.006;2023-06-19T03:45:50;101088.16;;;18.72;76.14
29417;BME280;28421;51.030;4.006;2023-06-19T03:48:16;101096.91;;;18.74;76.03
29417;BME280;28421;51.030;4.006;2023-06-19T03:50:41;101091.69;;;18.66;76.12
29417;BME280;28421;51.030;4.006;2023-06-19T03:53:07;101105.00;;;18.49;77.20
29417;BME280;28421;51.030;4.006;2023-06-19T03:55:33;101098.31;;;18.51;76.64
29417;BME280;28421;51.030;4.006;2023-06-19T03:57:58;101100.38;;;18.49;76.80
29417;BME280;28421;51.030;4.006;2023-06-19T04:00:23;101108.94;;;18.14;78.51
29417;BME280;28421;51.030;4.006;2023-06-19T04:02:49;101109.34;;;18.18;78.59
29417;BME280;28421;51.030;4.006;2023-06-19T04:05:15;101105.16;;;18.22;77.84
29417;BME280;28421;51.030;4.006;2023-06-19T04:07:44;101108.09;;;18.21;77.67
29417;BME280;28421;51.030;4.006;2023-06-19T04:10:13;101117.53;;;18.18;78.23
29417;BME280;28421;51.030;4.006;2023-06-19T04:12:39;101114.22;;;18.09;78.64
29417;BME280;28421;51.030;4.006;2023-06-19T04:15:06;101120.53;;;17.97;79.09
29417;BME280;28421;51.030;4.006;2023-06-19T04:17:32;101124.03;;;18.10;79.00
29417;BME280;28421;51.030;4.006;2023-06-19T04:19:57;101126.22;;;17.88;79.72
29417;BME280;28421;51.030;4.006;2023-06-19T04:22:23;101124.94;;;17.91;80.13
29417;BME280;28421;51.030;4.006;2023-06-19T04:24:48;101129.28;;;18.05;79.47
29417;BME280;28421;51.030;4.006;2023-06-19T04:27:14;101129.53;;;17.97;79.97
29417;BME280;28421;51.030;4.006;2023-06-19T04:29:39;101140.41;;;17.97;80.12
29417;BME280;28421;51.030;4.006;2023-06-19T04:32:05;101136.44;;;17.93;79.92
29417;BME280;28421;51.030;4.006;2023-06-19T04:34:40;101139.09;;;18.13;80.05
29417;BME280;28421;51.030;4.006;2023-06-19T04:37:06;101140.38;;;18.10;80.08
29417;BME280;28421;51.030;4.006;2023-06-19T04:39:32;101142.59;;;18.27;79.64
29417;BME280;28421;51.030;4.006;2023-06-19T04:41:59;101137.81;;;18.16;80.25
29417;BME280;28421;51.030;4.006;2023-06-19T04:44:25;101112.53;;;18.08;79.53
29417;BME280;28421;51.030;4.006;2023-06-19T04:46:51;101139.56;;;17.97;80.84
29417;BME280;28421;51.030;4.006;2023-06-19T04:49:16;101138.28;;;17.99;80.66
29417;BME280;28421;51.030;4.006;2023-06-19T04:51:41;101168.22;;;18.12;81.04
29417;BME280;28421;51.030;4.006;2023-06-19T04:54:07;101145.59;;;18.12;80.00
29417;BME280;28421;51.030;4.006;2023-06-19T04:56:32;101133.94;;;17.92;78.50
29417;BME280;28421;51.030;4.006;2023-06-19T04:58:58;101147.47;;;18.11;77.32
29417;BME280;28421;51.030;4.006;2023-06-19T05:01:26;101176.34;;;18.19;77.47
29417;BME280;28421;51.030;4.006;2023-06-19T05:03:56;101175.84;;;18.35;76.54
29417;BME280;28421;51.030;4.006;2023-06-19T05:06:25;101168.81;;;18.14;77.11
29417;BME280;28421;51.030;4.006;2023-06-19T05:08:50;101165.72;;;18.04;77.42
29417;BME280;28421;51.030;4.006;2023-06-19T05:11:16;101183.22;;;18.28;76.43
29417;BME280;28421;51.030;4.006;2023-06-19T05:13:41;101162.00;;;17.52;77.79
29417;BME280;28421;51.030;4.006;2023-06-19T05:16:07;101177.25;;;17.53;77.35
29417;BME280;28421;51.030;4.006;2023-06-19T05:18:32;101166.81;;;17.57;77.01
29417;BME280;28421;51.030;4.006;2023-06-19T05:20:58;101143.81;;;17.53;75.93
29417;BME280;28421;51.030;4.006;2023-06-19T05:23:24;101146.94;;;17.56;75.41
29417;BME280;28421;51.030;4.006;2023-06-19T05:25:49;101167.22;;;17.54;75.22
29417;BME280;28421;51.030;4.006;2023-06-19T05:28:14;101156.56;;;17.59;75.30
29417;BME280;28421;51.030;4.006;2023-06-19T05:30:40;101153.44;;;17.42;75.61
29417;BME280;28421;51.030;4.006;2023-06-19T05:33:05;101162.22;;;17.64;75.15
29417;BME280;28421;51.030;4.006;2023-06-19T05:35:31;101149.25;;;17.59;75.77
29417;BME280;28421;51.030;4.006;2023-06-19T05:37:57;101155.06;;;17.70;75.28
29417;BME280;28421;51.030;4.006;2023-06-19T05:40:23;101157.19;;;17.61;75.24
29417;BME280;28421;51.030;4.006;2023-06-19T05:42:48;101157.59;;;17.78;75.42
29417;BME280;28421;51.030;4.006;2023-06-19T05:45:14;101165.53;;;17.93;74.41
29417;BME280;28421;51.030;4.006;2023-06-19T05:47:39;101173.66;;;18.06;73.75
29417;BME280;28421;51.030;4.006;2023-06-19T05:50:05;101181.34;;;18.22;73.42
29417;BME280;28421;51.030;4.006;2023-06-19T05:52:30;101178.00;;;18.27;73.00
29417;BME280;28421;51.030;4.006;2023-06-19T05:54:56;101193.22;;;18.41;72.76
29417;BME280;28421;51.030;4.006;2023-06-19T05:57:23;101200.53;;;18.47;72.61
29417;BME280;28421;51.030;4.006;2023-06-19T05:59:50;101202.34;;;18.67;71.62
29417;BME280;28421;51.030;4.006;2023-06-19T06:02:17;101191.66;;;18.72;71.26
29417;BME280;28421;51.030;4.006;2023-06-19T06:04:43;101210.81;;;18.90;70.50
29417;BME280;28421;51.030;4.006;2023-06-19T06:07:09;101241.78;;;19.02;70.36
29417;BME280;28421;51.030;4.006;2023-06-19T06:09:34;101230.72;;;18.97;69.98
29417;BME280;28421;51.030;4.006;2023-06-19T06:12:00;101233.03;;;18.94;70.37
29417;BME280;28421;51.030;4.006;2023-06-19T06:14:26;101238.34;;;19.20;69.60
29417;BME280;28421;51.030;4.006;2023-06-19T06:16:51;101248.25;;;19.40;69.31
29417;BME280;28421;51.030;4.006;2023-06-19T06:19:17;101240.13;;;18.95;70.37
29417;BME280;28421;51.030;4.006;2023-06-19T06:21:42;101248.03;;;19.09;69.62
29417;BME280;28421;51.030;4.006;2023-06-19T06:24:08;101243.91;;;19.32;69.34
29417;BME280;28421;51.030;4.006;2023-06-19T06:26:33;101250.38;;;19.37;68.51
29417;BME280;28421;51.030;4.006;2023-06-19T06:29:00;101249.47;;;19.44;68.43
29417;BME280;28421;51.030;4.006;2023-06-19T06:31:26;101262.53;;;19.42;68.53
29417;BME280;28421;51.030;4.006;2023-06-19T06:33:51;101269.78;;;19.54;68.48
29417;BME280;28421;51.030;4.006;2023-06-19T06:36:16;101285.22;;;19.67;67.89
29417;BME280;28421;51.030;4.006;2023-06-19T06:38:42;101288.69;;;19.49;67.28
29417;BME280;28421;51.030;4.006;2023-06-19T06:41:08;101292.91;;;19.45;67.79
29417;BME280;28421;51.030;4.006;2023-06-19T06:43:33;101286.97;;;19.55;67.07
29417;BME280;28421;51.030;4.006;2023-06-19T06:45:59;101296.53;;;19.71;66.97
29417;BME280;28421;51.030;4.006;2023-06-19T06:48:24;101282.50;;;19.67;66.39
29417;BME280;28421;51.030;4.006;2023-06-19T06:50:50;101291.34;;;19.63;67.39
29417;BME280;28421;51.030;4.006;2023-06-19T06:53:15;101285.00;;;19.37;67.39
29417;BME280;28421;51.030;4.006;2023-06-19T06:55:41;101278.72;;;19.68;67.39
29417;BME280;28421;51.030;4.006;2023-06-19T06:58:06;101285.34;;;20.04;66.87
29417;BME280;28421;51.030;4.006;2023-06-19T07:00:32;101289.59;;;20.18;66.19
29417;BME280;28421;51.030;4.006;2023-06-19T07:02:57;101291.75;;;20.34;65.45
29417;BME280;28421;51.030;4.006;2023-06-19T07:05:22;101303.41;;;20.48;65.32
29417;BME280;28421;51.030;4.006;2023-06-19T07:07:48;101306.13;;;20.48;64.89
29417;BME280;28421;51.030;4.006;2023-06-19T07:10:13;101293.56;;;20.66;64.07
29417;BME280;28421;51.030;4.006;2023-06-19T07:12:48;101305.41;;;20.78;63.74
29417;BME280;28421;51.030;4.006;2023-06-19T07:15:14;101306.84;;;20.62;63.07
29417;BME280;28421;51.030;4.006;2023-06-19T07:17:39;101315.41;;;20.84;63.03
29417;BME280;28421;51.030;4.006;2023-06-19T07:20:05;101306.50;;;20.89;62.52
29417;BME280;28421;51.030;4.006;2023-06-19T07:22:32;101272.84;;;20.15;63.53
29417;BME280;28421;51.030;4.006;2023-06-19T07:24:57;101315.63;;;20.64;63.67
29417;BME280;28421;51.030;4.006;2023-06-19T07:27:23;101325.06;;;20.87;63.36
29417;BME280;28421;51.030;4.006;2023-06-19T07:29:52;101305.31;;;20.84;62.64
29417;BME280;28421;51.030;4.006;2023-06-19T07:32:18;101316.91;;;20.80;62.63
29417;BME280;28421;51.030;4.006;2023-06-19T07:34:44;101315.66;;;20.39;63.13
29417;BME280;28421;51.030;4.006;2023-06-19T07:37:09;101318.94;;;19.79;66.20
29417;BME280;28421;51.030;4.006;2023-06-19T07:39:35;101307.16;;;20.47;64.81
29417;BME280;28421;51.030;4.006;2023-06-19T07:42:00;101296.28;;;20.84;63.77
29417;BME280;28421;51.030;4.006;2023-06-19T07:44:26;101288.50;;;21.29;62.60
29417;BME280;28421;51.030;4.006;2023-06-19T07:46:51;101308.81;;;21.40;61.19
29417;BME280;28421;51.030;4.006;2023-06-19T07:49:16;101307.59;;;21.36;61.05
29417;BME280;28421;51.030;4.006;2023-06-19T07:51:42;101289.75;;;21.33;61.51
29417;BME280;28421;51.030;4.006;2023-06-19T07:54:07;101310.81;;;21.33;61.13
29417;BME280;28421;51.030;4.006;2023-06-19T07:56:33;101309.56;;;21.29;62.00
29417;BME280;28421;51.030;4.006;2023-06-19T07:58:59;101307.41;;;21.49;60.77
29417;BME280;28421;51.030;4.006;2023-06-19T08:01:24;101307.91;;;21.28;61.14
29417;BME280;28421;51.030;4.006;2023-06-19T08:03:50;101316.56;;;21.25;60.94
29417;BME280;28421;51.030;4.006;2023-06-19T08:06:15;101304.31;;;21.46;60.11
29417;BME280;28421;51.030;4.006;2023-06-19T08:08:40;101316.00;;;21.65;60.02
29417;BME280;28421;51.030;4.006;2023-06-19T08:11:06;101324.69;;;21.62;60.34
29417;BME280;28421;51.030;4.006;2023-06-19T08:13:31;101324.41;;;21.81;59.72
29417;BME280;28421;51.030;4.006;2023-06-19T08:15:57;101319.97;;;21.80;59.92
29417;BME280;28421;51.030;4.006;2023-06-19T08:18:22;101322.78;;;21.62;59.96
29417;BME280;28421;51.030;4.006;2023-06-19T08:20:47;101321.97;;;21.62;60.53
29417;BME280;28421;51.030;4.006;2023-06-19T08:23:13;101321.09;;;22.03;59.17
29417;BME280;28421;51.030;4.006;2023-06-19T08:25:38;101319.09;;;22.22;58.72
29417;BME280;28421;51.030;4.006;2023-06-19T08:28:04;101313.00;;;22.43;58.22
29417;BME280;28421;51.030;4.006;2023-06-19T08:30:30;101333.59;;;21.99;58.54
29417;BME280;28421;51.030;4.006;2023-06-19T08:32:55;101327.81;;;22.19;58.49
29417;BME280;28421;51.030;4.006;2023-06-19T08:35:21;101327.06;;;22.47;57.63
29417;BME280;28421;51.030;4.006;2023-06-19T08:37:46;101332.91;;;22.27;57.72
29417;BME280;28421;51.030;4.006;2023-06-19T08:40:12;101332.91;;;22.62;58.50
29417;BME280;28421;51.030;4.006;2023-06-19T08:42:37;101318.97;;;22.17;58.27
29417;BME280;28421;51.030;4.006;2023-06-19T08:45:06;101332.41;;;22.77;57.58
29417;BME280;28421;51.030;4.006;2023-06-19T08:47:32;101336.47;;;22.51;56.66
29417;BME280;28421;51.030;4.006;2023-06-19T08:49:58;101339.56;;;22.78;57.20
29417;BME280;28421;51.030;4.006;2023-06-19T08:52:23;101334.09;;;22.54;57.20
29417;BME280;28421;51.030;4.006;2023-06-19T08:54:49;101343.63;;;22.17;57.78
29417;BME280;28421;51.030;4.006;2023-06-19T08:57:14;101347.09;;;22.24;57.81
29417;BME280;28421;51.030;4.006;2023-06-19T08:59:48;101342.56;;;22.53;56.57
29417;BME280;28421;51.030;4.006;2023-06-19T09:02:13;101347.81;;;22.19;57.49
29417;BME280;28421;51.030;4.006;2023-06-19T09:04:38;101340.75;;;22.47;57.27
29417;BME280;28421;51.030;4.006;2023-06-19T09:07:07;101361.47;;;22.78;56.50
29417;BME280;28421;51.030;4.006;2023-06-19T09:09:44;101351.53;;;23.12;56.18
29417;BME280;28421;51.030;4.006;2023-06-19T09:12:12;101350.97;;;22.98;56.48
29417;BME280;28421;51.030;4.006;2023-06-19T09:14:45;101345.50;;;23.55;54.99
29417;BME280;28421;51.030;4.006;2023-06-19T09:17:19;101352.16;;;24.22;53.14
29417;BME280;28421;51.030;4.006;2023-06-19T09:19:49;101349.84;;;24.47;52.47
29417;BME280;28421;51.030;4.006;2023-06-19T09:22:17;101340.09;;;24.57;51.96
29417;BME280;28421;51.030;4.006;2023-06-19T09:24:46;101341.47;;;24.76;50.34
29417;BME280;28421;51.030;4.006;2023-06-19T09:27:16;101343.72;;;24.84;50.63
29417;BME280;28421;51.030;4.006;2023-06-19T09:29:45;101353.41;;;24.87;49.95
29417;BME280;28421;51.030;4.006;2023-06-19T09:32:18;101354.13;;;24.77;50.53
29417;BME280;28421;51.030;4.006;2023-06-19T09:34:45;101336.19;;;24.36;50.97
29417;BME280;28421;51.030;4.006;2023-06-19T09:37:11;101327.03;;;24.13;51.88
29417;BME280;28421;51.030;4.006;2023-06-19T09:39:37;101344.41;;;24.36;51.54
29417;BME280;28421;51.030;4.006;2023-06-19T09:42:06;101342.63;;;24.63;50.84
29417;BME280;28421;51.030;4.006;2023-06-19T09:44:39;101341.91;;;24.68;50.69
29417;BME280;28421;51.030;4.006;2023-06-19T09:47:14;101333.53;;;24.41;51.10
29417;BME280;28421;51.030;4.006;2023-06-19T09:49:47;101338.47;;;24.39;51.01
29417;BME280;28421;51.030;4.006;2023-06-19T09:52:13;101325.28;;;24.41;51.34
29417;BME280;28421;51.030;4.006;2023-06-19T09:54:39;101329.94;;;24.79;50.72
29417;BME280;28421;51.030;4.006;2023-06-19T09:57:06;101330.50;;;25.03;50.56
29417;BME280;28421;51.030;4.006;2023-06-19T09:59:33;101329.81;;;25.13;49.67
29417;BME280;28421;51.030;4.006;2023-06-19T10:01:59;101335.63;;;24.94;49.41
29417;BME280;28421;51.030;4.006;2023-06-19T10:04:25;101330.75;;;24.79;50.42
29417;BME280;28421;51.030;4.006;2023-06-19T10:06:51;101332.88;;;24.94;49.65
29417;BME280;28421;51.030;4.006;2023-06-19T10:09:17;101344.00;;;24.83;48.80
29417;BME280;28421;51.030;4.006;2023-06-19T10:11:51;101345.84;;;24.38;50.66
29417;BME280;28421;51.030;4.006;2023-06-19T10:14:18;101349.91;;;24.52;50.72
29417;BME280;28421;51.030;4.006;2023-06-19T10:16:44;101331.50;;;24.53;49.80
29417;BME280;28421;51.030;4.006;2023-06-19T10:19:18;101348.78;;;24.70;50.47
29417;BME280;28421;51.030;4.006;2023-06-19T10:21:48;101361.91;;;24.46;49.59
29417;BME280;28421;51.030;4.006;2023-06-19T10:24:16;101351.16;;;24.28;51.04
29417;BME280;28421;51.030;4.006;2023-06-19T10:26:56;101361.09;;;24.85;50.58
29417;BME280;28421;51.030;4.006;2023-06-19T10:29:22;101367.09;;;25.47;49.10
29417;BME280;28421;51.030;4.006;2023-06-19T10:31:48;101363.34;;;25.81;47.01
29417;BME280;28421;51.030;4.006;2023-06-19T10:34:13;101360.28;;;25.77;47.32
29417;BME280;28421;51.030;4.006;2023-06-19T10:36:39;101356.53;;;25.66;46.81
29417;BME280;28421;51.030;4.006;2023-06-19T10:39:04;101353.06;;;25.22;47.57
29417;BME280;28421;51.030;4.006;2023-06-19T10:41:30;101356.38;;;24.63;48.59
29417;BME280;28421;51.030;4.006;2023-06-19T10:44:07;101361.00;;;25.18;48.63
29417;BME280;28421;51.030;4.006;2023-06-19T10:46:38;101353.59;;;24.08;49.75
29417;BME280;28421;51.030;4.006;2023-06-19T10:49:05;101347.56;;;24.83;49.24
29417;BME280;28421;51.030;4.006;2023-06-19T10:51:34;101342.75;;;25.34;48.30
29417;BME280;28421;51.030;4.006;2023-06-19T10:53:59;101349.31;;;25.33;46.22
29417;BME280;28421;51.030;4.006;2023-06-19T10:56:25;101344.59;;;25.28;46.79
29417;BME280;28421;51.030;4.006;2023-06-19T10:59:01;101346.97;;;25.74;47.26
29417;BME280;28421;51.030;4.006;2023-06-19T11:01:44;101353.16;;;26.13;45.07
29417;BME280;28421;51.030;4.006;2023-06-19T11:04:12;101352.88;;;25.83;44.71
29417;BME280;28421;51.030;4.006;2023-06-19T11:06:39;101347.22;;;26.32;44.66
29417;BME280;28421;51.030;4.006;2023-06-19T11:09:10;101348.72;;;25.26;46.44
29417;BME280;28421;51.030;4.006;2023-06-19T11:14:01;101350.00;;;25.72;47.53
29417;BME280;28421;51.030;4.006;2023-06-19T11:16:27;101348.75;;;25.80;45.44
29417;BME280;28421;51.030;4.006;2023-06-19T11:18:56;101345.22;;;26.22;46.49
29417;BME280;28421;51.030;4.006;2023-06-19T11:21:35;101336.13;;;26.64;44.83
29417;BME280;28421;51.030;4.006;2023-06-19T11:24:13;101339.59;;;26.96;43.87
29417;BME280;28421;51.030;4.006;2023-06-19T11:26:41;101339.13;;;27.15;44.20
29417;BME280;28421;51.030;4.006;2023-06-19T11:29:41;101348.09;;;27.68;43.47
29417;BME280;28421;51.030;4.006;2023-06-19T11:32:14;101348.16;;;27.93;42.29
29417;BME280;28421;51.030;4.006;2023-06-19T11:34:40;101347.59;;;27.81;41.33
29417;BME280;28421;51.030;4.006;2023-06-19T11:37:13;101351.19;;;28.12;40.74
29417;BME280;28421;51.030;4.006;2023-06-19T11:39:38;101337.34;;;27.71;41.47
29417;BME280;28421;51.030;4.006;2023-06-19T11:42:05;101341.75;;;27.72;40.60
29417;BME280;28421;51.030;4.006;2023-06-19T11:44:30;101349.19;;;27.51;40.98
29417;BME280;28421;51.030;4.006;2023-06-19T11:46:57;101347.38;;;26.52;42.89
29417;BME280;28421;51.030;4.006;2023-06-19T11:49:27;101337.78;;;27.17;42.26
29417;BME280;28421;51.030;4.006;2023-06-19T11:51:58;101344.19;;;27.38;41.12
29417;BME280;28421;51.030;4.006;2023-06-19T11:54:23;101331.44;;;27.27;41.63
29417;BME280;28421;51.030;4.006;2023-06-19T11:56:49;101337.28;;;27.41;42.07
29417;BME280;28421;51.030;4.006;2023-06-19T11:59:14;101322.72;;;27.76;41.52
29417;BME280;28421;51.030;4.006;2023-06-19T12:01:40;101325.75;;;28.10;41.31
29417;BME280;28421;51.030;4.006;2023-06-19T12:04:06;101325.19;;;28.39;40.48
29417;BME280;28421;51.030;4.006;2023-06-19T12:06:31;101323.53;;;28.02;40.66
29417;BME280;28421;51.030;4.006;2023-06-19T12:08:57;101325.16;;;26.79;41.65
29417;BME280;28421;51.030;4.006;2023-06-19T12:11:23;101317.88;;;27.15;41.61
29417;BME280;28421;51.030;4.006;2023-06-19T12:13:50;101319.19;;;27.08;41.79
29417;BME280;28421;51.030;4.006;2023-06-19T12:16:15;101311.91;;;27.54;41.11
29417;BME280;28421;51.030;4.006;2023-06-19T12:18:41;101323.28;;;27.83;39.09
29417;BME280;28421;51.030;4.006;2023-06-19T12:21:07;101328.19;;;27.61;38.95
29417;BME280;28421;51.030;4.006;2023-06-19T12:23:33;101318.56;;;27.73;39.69
29417;BME280;28421;51.030;4.006;2023-06-19T12:25:58;101314.09;;;27.52;39.15
29417;BME280;28421;51.030;4.006;2023-06-19T12:28:24;101303.34;;;27.61;38.57
29417;BME280;28421;51.030;4.006;2023-06-19T12:30:51;101304.69;;;27.48;39.36
29417;BME280;28421;51.030;4.006;2023-06-19T12:33:20;101307.78;;;27.97;38.79
29417;BME280;28421;51.030;4.006;2023-06-19T12:35:49;101313.88;;;27.94;38.67
29417;BME280;28421;51.030;4.006;2023-06-19T12:38:14;101307.78;;;28.18;38.65
29417;BME280;28421;51.030;4.006;2023-06-19T12:40:40;101303.34;;;28.12;38.38
29417;BME280;28421;51.030;4.006;2023-06-19T12:43:05;101300.84;;;28.46;38.01
29417;BME280;28421;51.030;4.006;2023-06-19T12:45:31;101309.31;;;28.75;38.03
29417;BME280;28421;51.030;4.006;2023-06-19T12:47:57;101295.53;;;28.60;36.46
29417;BME280;28421;51.030;4.006;2023-06-19T12:50:23;101299.66;;;28.67;36.59
29417;BME280;28421;51.030;4.006;2023-06-19T12:52:48;101305.16;;;28.72;37.59
29417;BME280;28421;51.030;4.006;2023-06-19T12:55:14;101287.34;;;28.94;36.09